Airfield :
LOGIN :

Register | Disclaimer

   EN    FR    IT 

 










Legend :    VFR   Marginal VFR   IFR   Intensive IFR   Very Intensive IFR
Visi :
Ceiling :
>= 8 km
>= 3000ft
5 to 8 km
1000 to 3000 ft
1500m to 5 km
500 to 1000 ft
800 to 1500m
200 to 500 ft
< 800m
< 200 ft
Symbols :   Thunderstorms  Fog  Heavy snow  Heavy precipitations  Wind > 20 kt
SIGMETs :     Misc.  Thunderstorms  Icing  Turbulence  Mountain Waves  Volcanic Ashes






- Airport Elevation : 755 ft
- IATA code : DRS


EDDC - Dresden Klotzsche

CURRENT METAR :
  • 081620Z 13007KT 100V160 CAVOK 33/12 Q1019 NOSIG

EXPIRED METARs :
  • 081550Z 11005KT 080V140 CAVOK 33/11 Q1019 NOSIG
  • 081520Z 07003KT 040V150 CAVOK 33/11 Q1019 NOSIG
  • 081450Z VRB03KT CAVOK 34/11 Q1019 NOSIG
  • 081420Z 15007KT 120V200 CAVOK 33/11 Q1019 NOSIG

TAF TAF EDDC
Valid from the 08 at 12:00 until the 09 at 12:00 UTC


081100Z 0812/0912 09006KT CAVOK
BECMG 0819/0821 15006KT
BECMG 0908/0910 08005KT



MET'MAP, your aeronautical weather chart ! - Copyright ORBIFLY December 2007 - Disclaimer

ORBIFLY MET'MAP TEAM :

Programming & Development : Alexandra Zaïnal
Concept & original design : Baudouin d'Aumeries
Assistance for programming : Marc-Olivier Méhu
Technical & hardware support : Manuel Goepfert

Contact : metmap@orbifly.com




SOURCES & CREDITS :

   NOAA